sensor_id;sensor_type;location;lat;lon;timestamp;temperature;humidity
3564;DHT22;1796;52.388;13.096;2023-11-21T00:02:18;8.30;99.90
3564;DHT22;1796;52.388;13.096;2023-11-21T00:04:45;8.30;99.90
3564;DHT22;1796;52.388;13.096;2023-11-21T00:07:12;8.30;99.90
3564;DHT22;1796;52.388;13.096;2023-11-21T00:09:40;8.30;99.90
3564;DHT22;1796;52.388;13.096;2023-11-21T00:12:07;8.30;99.90
3564;DHT22;1796;52.388;13.096;2023-11-21T00:14:35;8.20;99.90
3564;DHT22;1796;52.388;13.096;2023-11-21T00:17:02;8.30;99.90
3564;DHT22;1796;52.388;13.096;2023-11-21T00:19:31;8.30;99.90
3564;DHT22;1796;52.388;13.096;2023-11-21T00:21:58;8.30;99.90
3564;DHT22;1796;52.388;13.096;2023-11-21T00:24:25;8.30;99.90
3564;DHT22;1796;52.388;13.096;2023-11-21T00:26:52;8.30;99.90
3564;DHT22;1796;52.388;13.096;2023-11-21T00:29:19;8.30;99.90
3564;DHT22;1796;52.388;13.096;2023-11-21T00:31:46;8.20;99.90
3564;DHT22;1796;52.388;13.096;2023-11-21T00:34:13;8.30;99.90
3564;DHT22;1796;52.388;13.096;2023-11-21T00:36:41;8.20;99.90
3564;DHT22;1796;52.388;13.096;2023-11-21T00:39:08;8.20;99.90
3564;DHT22;1796;52.388;13.096;2023-11-21T00:41:37;8.20;99.90
3564;DHT22;1796;52.388;13.096;2023-11-21T00:44:04;8.20;99.90
3564;DHT22;1796;52.388;13.096;2023-11-21T00:46:32;8.10;99.90
3564;DHT22;1796;52.388;13.096;2023-11-21T00:48:59;8.00;99.90
3564;DHT22;1796;52.388;13.096;2023-11-21T00:51:25;7.90;99.90
3564;DHT22;1796;52.388;13.096;2023-11-21T00:53:54;7.80;99.90
3564;DHT22;1796;52.388;13.096;2023-11-21T00:56:21;7.60;99.90
3564;DHT22;1796;52.388;13.096;2023-11-21T00:58:49;7.60;99.90
3564;DHT22;1796;52.388;13.096;2023-11-21T01:01:18;7.40;99.90
3564;DHT22;1796;52.388;13.096;2023-11-21T01:03:46;7.40;99.90
3564;DHT22;1796;52.388;13.096;2023-11-21T01:06:13;7.40;99.90
3564;DHT22;1796;52.388;13.096;2023-11-21T01:08:40;7.40;99.90
3564;DHT22;1796;52.388;13.096;2023-11-21T01:11:08;7.30;99.90
3564;DHT22;1796;52.388;13.096;2023-11-21T01:13:37;7.00;99.90
3564;DHT22;1796;52.388;13.096;2023-11-21T01:16:05;6.90;99.90
3564;DHT22;1796;52.388;13.096;2023-11-21T01:18:32;6.70;99.90
3564;DHT22;1796;52.388;13.096;2023-11-21T01:21:00;6.50;99.90
3564;DHT22;1796;52.388;13.096;2023-11-21T01:23:27;6.50;99.90
3564;DHT22;1796;52.388;13.096;2023-11-21T01:25:56;6.50;99.90
3564;DHT22;1796;52.388;13.096;2023-11-21T01:28:24;6.40;99.90
3564;DHT22;1796;52.388;13.096;2023-11-21T01:30:52;6.40;99.90
3564;DHT22;1796;52.388;13.096;2023-11-21T01:33:22;6.40;99.90
3564;DHT22;1796;52.388;13.096;2023-11-21T01:35:50;6.30;99.90
3564;DHT22;1796;52.388;13.096;2023-11-21T01:38:20;6.20;99.90
3564;DHT22;1796;52.388;13.096;2023-11-21T01:40:46;6.30;99.90
3564;DHT22;1796;52.388;13.096;2023-11-21T01:43:13;6.30;99.90
3564;DHT22;1796;52.388;13.096;2023-11-21T01:45:41;6.30;99.90
3564;DHT22;1796;52.388;13.096;2023-11-21T01:48:08;6.30;99.90
3564;DHT22;1796;52.388;13.096;2023-11-21T01:50:35;6.20;99.90
3564;DHT22;1796;52.388;13.096;2023-11-21T01:53:02;6.20;99.90
3564;DHT22;1796;52.388;13.096;2023-11-21T01:55:30;6.20;99.90
3564;DHT22;1796;52.388;13.096;2023-11-21T01:57:57;6.10;99.90
3564;DHT22;1796;52.388;13.096;2023-11-21T02:00:24;6.10;99.90
3564;DHT22;1796;52.388;13.096;2023-11-21T02:02:54;6.00;99.90
3564;DHT22;1796;52.388;13.096;2023-11-21T02:05:22;6.00;99.90
3564;DHT22;1796;52.388;13.096;2023-11-21T02:07:52;6.00;99.90
3564;DHT22;1796;52.388;13.096;2023-11-21T02:10:18;5.90;99.90
3564;DHT22;1796;52.388;13.096;2023-11-21T02:12:48;5.90;99.90
3564;DHT22;1796;52.388;13.096;2023-11-21T02:15:16;5.90;99.90
3564;DHT22;1796;52.388;13.096;2023-11-21T02:17:45;6.00;99.90
3564;DHT22;1796;52.388;13.096;2023-11-21T02:20:14;5.90;99.90
3564;DHT22;1796;52.388;13.096;2023-11-21T02:22:50;6.00;99.90
3564;DHT22;1796;52.388;13.096;2023-11-21T02:25:18;6.00;99.90
3564;DHT22;1796;52.388;13.096;2023-11-21T02:27:45;6.00;99.90
3564;DHT22;1796;52.388;13.096;2023-11-21T02:30:14;6.00;99.90
3564;DHT22;1796;52.388;13.096;2023-11-21T02:32:41;5.90;99.90
3564;DHT22;1796;52.388;13.096;2023-11-21T02:35:09;5.90;99.90
3564;DHT22;1796;52.388;13.096;2023-11-21T02:37:37;5.90;99.90
3564;DHT22;1796;52.388;13.096;2023-11-21T02:40:09;5.90;99.90
3564;DHT22;1796;52.388;13.096;2023-11-21T02:42:38;5.90;99.90
3564;DHT22;1796;52.388;13.096;2023-11-21T02:45:06;5.80;99.90
3564;DHT22;1796;52.388;13.096;2023-11-21T02:47:33;5.70;99.90
3564;DHT22;1796;52.388;13.096;2023-11-21T02:50:00;5.80;99.90
3564;DHT22;1796;52.388;13.096;2023-11-21T02:52:27;5.70;99.90
3564;DHT22;1796;52.388;13.096;2023-11-21T02:54:54;5.60;99.90
3564;DHT22;1796;52.388;13.096;2023-11-21T02:57:22;5.60;99.90
3564;DHT22;1796;52.388;13.096;2023-11-21T02:59:49;5.60;99.90
3564;DHT22;1796;52.388;13.096;2023-11-21T03:02:16;5.60;99.90
3564;DHT22;1796;52.388;13.096;2023-11-21T03:04:43;5.60;99.90
3564;DHT22;1796;52.388;13.096;2023-11-21T03:07:10;5.60;99.90
3564;DHT22;1796;52.388;13.096;2023-11-21T03:09:37;5.60;99.90
3564;DHT22;1796;52.388;13.096;2023-11-21T03:12:05;5.60;99.90
3564;DHT22;1796;52.388;13.096;2023-11-21T03:14:33;5.50;99.90
3564;DHT22;1796;52.388;13.096;2023-11-21T03:17:00;5.50;99.90
3564;DHT22;1796;52.388;13.096;2023-11-21T03:19:30;5.60;99.90
3564;DHT22;1796;52.388;13.096;2023-11-21T03:21:57;5.50;99.90
3564;DHT22;1796;52.388;13.096;2023-11-21T03:24:25;5.50;99.90
3564;DHT22;1796;52.388;13.096;2023-11-21T03:26:53;5.50;99.90
3564;DHT22;1796;52.388;13.096;2023-11-21T03:29:22;5.50;99.90
3564;DHT22;1796;52.388;13.096;2023-11-21T03:31:50;5.40;99.90
3564;DHT22;1796;52.388;13.096;2023-11-21T03:34:23;5.40;99.90
3564;DHT22;1796;52.388;13.096;2023-11-21T03:36:51;5.40;99.90
3564;DHT22;1796;52.388;13.096;2023-11-21T03:39:19;5.40;99.90
3564;DHT22;1796;52.388;13.096;2023-11-21T03:41:46;5.50;99.90
3564;DHT22;1796;52.388;13.096;2023-11-21T03:44:13;5.40;99.90
3564;DHT22;1796;52.388;13.096;2023-11-21T03:46:40;5.40;99.90
3564;DHT22;1796;52.388;13.096;2023-11-21T03:49:08;5.30;99.90
3564;DHT22;1796;52.388;13.096;2023-11-21T03:51:36;5.30;99.90
3564;DHT22;1796;52.388;13.096;2023-11-21T03:54:03;5.30;99.90
3564;DHT22;1796;52.388;13.096;2023-11-21T03:56:30;5.40;99.90
3564;DHT22;1796;52.388;13.096;2023-11-21T03:58:57;5.30;99.90
3564;DHT22;1796;52.388;13.096;2023-11-21T04:01:25;5.30;99.90
3564;DHT22;1796;52.388;13.096;2023-11-21T04:03:52;5.30;99.90
3564;DHT22;1796;52.388;13.096;2023-11-21T04:06:20;5.40;99.90
3564;DHT22;1796;52.388;13.096;2023-11-21T04:08:47;5.30;99.90
3564;DHT22;1796;52.388;13.096;2023-11-21T04:11:14;5.30;99.90
3564;DHT22;1796;52.388;13.096;2023-11-21T04:13:40;5.30;99.90
3564;DHT22;1796;52.388;13.096;2023-11-21T04:16:08;5.30;99.90
3564;DHT22;1796;52.388;13.096;2023-11-21T04:18:36;5.30;99.90
3564;DHT22;1796;52.388;13.096;2023-11-21T04:21:03;5.30;99.90
3564;DHT22;1796;52.388;13.096;2023-11-21T04:23:32;5.30;99.90
3564;DHT22;1796;52.388;13.096;2023-11-21T04:25:58;5.30;99.90
3564;DHT22;1796;52.388;13.096;2023-11-21T04:28:25;5.40;99.90
3564;DHT22;1796;52.388;13.096;2023-11-21T04:30:52;5.30;99.90
3564;DHT22;1796;52.388;13.096;2023-11-21T04:33:19;5.30;99.90
3564;DHT22;1796;52.388;13.096;2023-11-21T04:35:47;5.30;99.90
3564;DHT22;1796;52.388;13.096;2023-11-21T04:38:14;5.30;99.90
3564;DHT22;1796;52.388;13.096;2023-11-21T04:40:42;5.30;99.90
3564;DHT22;1796;52.388;13.096;2023-11-21T04:43:09;5.30;99.90
3564;DHT22;1796;52.388;13.096;2023-11-21T04:45:36;5.30;99.90
3564;DHT22;1796;52.388;13.096;2023-11-21T04:48:03;5.30;99.90
3564;DHT22;1796;52.388;13.096;2023-11-21T04:50:31;5.20;99.90
3564;DHT22;1796;52.388;13.096;2023-11-21T04:52:57;5.20;99.90
3564;DHT22;1796;52.388;13.096;2023-11-21T04:55:24;5.20;99.90
3564;DHT22;1796;52.388;13.096;2023-11-21T04:57:55;5.10;99.90
3564;DHT22;1796;52.388;13.096;2023-11-21T05:00:21;5.10;99.90
3564;DHT22;1796;52.388;13.096;2023-11-21T05:02:49;5.10;99.90
3564;DHT22;1796;52.388;13.096;2023-11-21T05:05:16;5.10;99.90
3564;DHT22;1796;52.388;13.096;2023-11-21T05:07:43;5.10;99.90
3564;DHT22;1796;52.388;13.096;2023-11-21T05:10:10;5.10;99.90
3564;DHT22;1796;52.388;13.096;2023-11-21T05:12:38;5.10;99.90
3564;DHT22;1796;52.388;13.096;2023-11-21T05:15:07;5.10;99.90
3564;DHT22;1796;52.388;13.096;2023-11-21T05:17:37;5.10;99.90
3564;DHT22;1796;52.388;13.096;2023-11-21T05:20:05;5.10;99.90
3564;DHT22;1796;52.388;13.096;2023-11-21T05:22:34;5.10;99.90
3564;DHT22;1796;52.388;13.096;2023-11-21T05:25:01;5.00;99.90
3564;DHT22;1796;52.388;13.096;2023-11-21T05:27:29;5.10;99.90
3564;DHT22;1796;52.388;13.096;2023-11-21T05:29:56;5.10;99.90
3564;DHT22;1796;52.388;13.096;2023-11-21T05:32:24;5.10;99.90
3564;DHT22;1796;52.388;13.096;2023-11-21T05:34:52;5.00;99.90
3564;DHT22;1796;52.388;13.096;2023-11-21T05:37:19;5.00;99.90
3564;DHT22;1796;52.388;13.096;2023-11-21T05:39:45;5.00;99.90
3564;DHT22;1796;52.388;13.096;2023-11-21T05:42:12;5.00;99.90
3564;DHT22;1796;52.388;13.096;2023-11-21T05:44:41;5.00;99.90
3564;DHT22;1796;52.388;13.096;2023-11-21T05:47:08;5.00;99.90
3564;DHT22;1796;52.388;13.096;2023-11-21T05:49:37;5.00;99.90
3564;DHT22;1796;52.388;13.096;2023-11-21T05:52:04;5.00;99.90
3564;DHT22;1796;52.388;13.096;2023-11-21T05:54:31;5.00;99.90
3564;DHT22;1796;52.388;13.096;2023-11-21T05:56:59;5.00;99.90
3564;DHT22;1796;52.388;13.096;2023-11-21T05:59:26;4.90;99.90
3564;DHT22;1796;52.388;13.096;2023-11-21T06:01:52;4.80;99.90
3564;DHT22;1796;52.388;13.096;2023-11-21T06:04:19;4.90;99.90
3564;DHT22;1796;52.388;13.096;2023-11-21T06:06:51;4.90;99.90
3564;DHT22;1796;52.388;13.096;2023-11-21T06:09:17;4.90;99.90
3564;DHT22;1796;52.388;13.096;2023-11-21T06:11:44;4.90;99.90
3564;DHT22;1796;52.388;13.096;2023-11-21T06:14:11;4.90;99.90
3564;DHT22;1796;52.388;13.096;2023-11-21T06:16:38;4.90;99.90
3564;DHT22;1796;52.388;13.096;2023-11-21T06:19:05;4.90;99.90
3564;DHT22;1796;52.388;13.096;2023-11-21T06:21:32;4.90;99.90
3564;DHT22;1796;52.388;13.096;2023-11-21T06:24:02;4.80;99.90
3564;DHT22;1796;52.388;13.096;2023-11-21T06:26:29;4.70;99.90
3564;DHT22;1796;52.388;13.096;2023-11-21T06:28:57;4.70;99.90
3564;DHT22;1796;52.388;13.096;2023-11-21T06:31:24;4.70;99.90
3564;DHT22;1796;52.388;13.096;2023-11-21T06:33:50;4.60;99.90
3564;DHT22;1796;52.388;13.096;2023-11-21T06:36:18;4.60;99.90
3564;DHT22;1796;52.388;13.096;2023-11-21T06:38:45;4.60;99.90
3564;DHT22;1796;52.388;13.096;2023-11-21T06:41:13;4.60;99.90
3564;DHT22;1796;52.388;13.096;2023-11-21T06:43:41;4.60;99.90
3564;DHT22;1796;52.388;13.096;2023-11-21T06:46:11;4.60;99.90
3564;DHT22;1796;52.388;13.096;2023-11-21T06:48:40;4.60;99.90
3564;DHT22;1796;52.388;13.096;2023-11-21T06:51:07;4.70;99.90
3564;DHT22;1796;52.388;13.096;2023-11-21T06:53:34;4.70;99.90
3564;DHT22;1796;52.388;13.096;2023-11-21T06:56:02;4.70;99.90
3564;DHT22;1796;52.388;13.096;2023-11-21T06:58:30;4.70;99.90
3564;DHT22;1796;52.388;13.096;2023-11-21T07:00:57;4.60;99.90
3564;DHT22;1796;52.388;13.096;2023-11-21T07:03:24;4.70;99.90
3564;DHT22;1796;52.388;13.096;2023-11-21T07:05:51;4.70;99.90
3564;DHT22;1796;52.388;13.096;2023-11-21T07:08:18;4.70;99.90
3564;DHT22;1796;52.388;13.096;2023-11-21T07:10:45;4.70;99.90
3564;DHT22;1796;52.388;13.096;2023-11-21T07:13:12;4.70;99.90
3564;DHT22;1796;52.388;13.096;2023-11-21T07:15:41;4.70;99.90
3564;DHT22;1796;52.388;13.096;2023-11-21T07:18:09;4.60;99.90
3564;DHT22;1796;52.388;13.096;2023-11-21T07:20:35;4.60;99.90
3564;DHT22;1796;52.388;13.096;2023-11-21T07:23:02;4.60;99.90
3564;DHT22;1796;52.388;13.096;2023-11-21T07:25:31;4.60;99.90
3564;DHT22;1796;52.388;13.096;2023-11-21T07:27:59;4.50;99.90
3564;DHT22;1796;52.388;13.096;2023-11-21T07:30:26;4.50;99.90
3564;DHT22;1796;52.388;13.096;2023-11-21T07:32:54;4.50;99.90
3564;DHT22;1796;52.388;13.096;2023-11-21T07:35:21;4.50;99.90
3564;DHT22;1796;52.388;13.096;2023-11-21T07:37:49;4.50;99.90
3564;DHT22;1796;52.388;13.096;2023-11-21T07:40:16;4.50;99.90
3564;DHT22;1796;52.388;13.096;2023-11-21T07:42:43;4.50;99.90
3564;DHT22;1796;52.388;13.096;2023-11-21T07:45:10;4.50;99.90
3564;DHT22;1796;52.388;13.096;2023-11-21T07:47:38;4.50;99.90
3564;DHT22;1796;52.388;13.096;2023-11-21T07:50:08;4.60;99.90
3564;DHT22;1796;52.388;13.096;2023-11-21T07:52:35;4.60;99.90
3564;DHT22;1796;52.388;13.096;2023-11-21T07:55:02;4.60;99.90
3564;DHT22;1796;52.388;13.096;2023-11-21T07:57:29;4.70;99.90
3564;DHT22;1796;52.388;13.096;2023-11-21T07:59:56;4.60;99.90
3564;DHT22;1796;52.388;13.096;2023-11-21T08:02:23;4.60;99.90
3564;DHT22;1796;52.388;13.096;2023-11-21T08:04:51;4.70;99.90
3564;DHT22;1796;52.388;13.096;2023-11-21T08:07:19;4.70;99.90
3564;DHT22;1796;52.388;13.096;2023-11-21T08:09:47;4.70;99.90
3564;DHT22;1796;52.388;13.096;2023-11-21T08:12:15;4.60;99.90
3564;DHT22;1796;52.388;13.096;2023-11-21T08:14:43;4.60;99.90
3564;DHT22;1796;52.388;13.096;2023-11-21T08:17:10;4.70;99.90
3564;DHT22;1796;52.388;13.096;2023-11-21T08:19:37;4.70;99.90
3564;DHT22;1796;52.388;13.096;2023-11-21T08:22:04;4.60;99.90
3564;DHT22;1796;52.388;13.096;2023-11-21T08:24:35;4.60;99.90
3564;DHT22;1796;52.388;13.096;2023-11-21T08:27:03;4.60;99.90
3564;DHT22;1796;52.388;13.096;2023-11-21T08:29:30;4.70;99.90
3564;DHT22;1796;52.388;13.096;2023-11-21T08:31:57;4.70;99.90
3564;DHT22;1796;52.388;13.096;2023-11-21T08:34:25;4.70;99.90
3564;DHT22;1796;52.388;13.096;2023-11-21T08:36:52;4.70;99.90
3564;DHT22;1796;52.388;13.096;2023-11-21T08:39:19;4.70;99.90
3564;DHT22;1796;52.388;13.096;2023-11-21T08:41:47;4.70;99.90
3564;DHT22;1796;52.388;13.096;2023-11-21T08:44:14;4.70;99.90
3564;DHT22;1796;52.388;13.096;2023-11-21T08:46:42;4.70;99.90
3564;DHT22;1796;52.388;13.096;2023-11-21T08:49:10;4.60;99.90
3564;DHT22;1796;52.388;13.096;2023-11-21T08:51:38;4.70;99.90
3564;DHT22;1796;52.388;13.096;2023-11-21T08:54:05;4.80;99.90
3564;DHT22;1796;52.388;13.096;2023-11-21T08:56:33;4.80;99.90
3564;DHT22;1796;52.388;13.096;2023-11-21T08:59:02;4.70;99.90
3564;DHT22;1796;52.388;13.096;2023-11-21T09:01:29;4.70;99.90
3564;DHT22;1796;52.388;13.096;2023-11-21T09:03:57;4.70;99.90
3564;DHT22;1796;52.388;13.096;2023-11-21T09:06:24;4.60;99.90
3564;DHT22;1796;52.388;13.096;2023-11-21T09:08:51;4.60;99.90
3564;DHT22;1796;52.388;13.096;2023-11-21T09:11:18;4.60;99.90
3564;DHT22;1796;52.388;13.096;2023-11-21T09:13:45;4.60;99.90
3564;DHT22;1796;52.388;13.096;2023-11-21T09:16:14;4.50;99.90
3564;DHT22;1796;52.388;13.096;2023-11-21T09:18:41;4.50;99.90
3564;DHT22;1796;52.388;13.096;2023-11-21T09:21:08;4.50;99.90
3564;DHT22;1796;52.388;13.096;2023-11-21T09:23:35;4.40;99.90
3564;DHT22;1796;52.388;13.096;2023-11-21T09:26:02;4.50;99.90
3564;DHT22;1796;52.388;13.096;2023-11-21T09:28:31;4.50;99.90
3564;DHT22;1796;52.388;13.096;2023-11-21T09:30:57;4.50;99.90
3564;DHT22;1796;52.388;13.096;2023-11-21T09:33:26;4.50;99.90
3564;DHT22;1796;52.388;13.096;2023-11-21T09:35:52;4.50;99.90
3564;DHT22;1796;52.388;13.096;2023-11-21T09:38:19;4.50;99.90
3564;DHT22;1796;52.388;13.096;2023-11-21T09:40:46;4.50;99.90
3564;DHT22;1796;52.388;13.096;2023-11-21T09:43:17;4.50;99.90
3564;DHT22;1796;52.388;13.096;2023-11-21T09:45:46;4.50;99.90
3564;DHT22;1796;52.388;13.096;2023-11-21T09:48:14;4.50;99.90
3564;DHT22;1796;52.388;13.096;2023-11-21T09:50:44;4.50;99.90
3564;DHT22;1796;52.388;13.096;2023-11-21T09:53:16;4.50;99.90
3564;DHT22;1796;52.388;13.096;2023-11-21T09:55:45;4.50;99.90
3564;DHT22;1796;52.388;13.096;2023-11-21T09:58:14;4.50;99.90
3564;DHT22;1796;52.388;13.096;2023-11-21T10:00:42;4.50;99.90
3564;DHT22;1796;52.388;13.096;2023-11-21T10:03:09;4.60;99.90
3564;DHT22;1796;52.388;13.096;2023-11-21T10:05:36;4.60;99.90
3564;DHT22;1796;52.388;13.096;2023-11-21T10:08:08;4.60;99.90
3564;DHT22;1796;52.388;13.096;2023-11-21T10:10:36;4.50;99.90
3564;DHT22;1796;52.388;13.096;2023-11-21T10:13:07;4.60;99.90
3564;DHT22;1796;52.388;13.096;2023-11-21T10:15:36;4.70;99.90
3564;DHT22;1796;52.388;13.096;2023-11-21T10:18:07;4.70;99.90
3564;DHT22;1796;52.388;13.096;2023-11-21T10:20:34;4.70;99.90
3564;DHT22;1796;52.388;13.096;2023-11-21T10:23:03;4.70;99.90
3564;DHT22;1796;52.388;13.096;2023-11-21T10:25:34;4.70;99.90
3564;DHT22;1796;52.388;13.096;2023-11-21T10:28:03;4.70;99.90
3564;DHT22;1796;52.388;13.096;2023-11-21T10:30:33;4.70;99.90
3564;DHT22;1796;52.388;13.096;2023-11-21T10:33:03;4.60;99.90
3564;DHT22;1796;52.388;13.096;2023-11-21T10:35:43;4.60;99.90
3564;DHT22;1796;52.388;13.096;2023-11-21T10:38:12;4.60;99.90
3564;DHT22;1796;52.388;13.096;2023-11-21T10:40:41;4.70;99.90
3564;DHT22;1796;52.388;13.096;2023-11-21T10:43:12;4.50;99.90
3564;DHT22;1796;52.388;13.096;2023-11-21T10:45:40;4.40;99.90
3564;DHT22;1796;52.388;13.096;2023-11-21T10:48:08;4.40;99.90
3564;DHT22;1796;52.388;13.096;2023-11-21T10:50:36;4.40;99.90
3564;DHT22;1796;52.388;13.096;2023-11-21T10:53:04;4.50;99.90
3564;DHT22;1796;52.388;13.096;2023-11-21T10:55:32;4.50;99.90
3564;DHT22;1796;52.388;13.096;2023-11-21T10:58:01;4.50;99.90
3564;DHT22;1796;52.388;13.096;2023-11-21T11:00:30;4.50;99.90
3564;DHT22;1796;52.388;13.096;2023-11-21T11:02:57;4.40;99.90
3564;DHT22;1796;52.388;13.096;2023-11-21T11:05:26;4.40;99.90
3564;DHT22;1796;52.388;13.096;2023-11-21T11:07:58;4.40;99.90
3564;DHT22;1796;52.388;13.096;2023-11-21T11:10:27;4.50;99.90
3564;DHT22;1796;52.388;13.096;2023-11-21T11:12:55;4.50;99.90
3564;DHT22;1796;52.388;13.096;2023-11-21T11:15:24;4.60;99.90
3564;DHT22;1796;52.388;13.096;2023-11-21T11:17:52;4.60;99.90
3564;DHT22;1796;52.388;13.096;2023-11-21T11:20:23;4.60;99.90
3564;DHT22;1796;52.388;13.096;2023-11-21T11:22:59;4.60;99.90
3564;DHT22;1796;52.388;13.096;2023-11-21T11:25:39;4.60;99.90
3564;DHT22;1796;52.388;13.096;2023-11-21T11:28:15;4.60;99.90
3564;DHT22;1796;52.388;13.096;2023-11-21T11:30:55;4.60;99.90
3564;DHT22;1796;52.388;13.096;2023-11-21T11:33:33;4.50;99.90
3564;DHT22;1796;52.388;13.096;2023-11-21T11:36:06;4.50;99.90
3564;DHT22;1796;52.388;13.096;2023-11-21T11:38:34;4.60;99.90
3564;DHT22;1796;52.388;13.096;2023-11-21T11:41:03;4.60;99.90
3564;DHT22;1796;52.388;13.096;2023-11-21T11:43:30;4.50;99.90
3564;DHT22;1796;52.388;13.096;2023-11-21T11:46:01;4.50;99.90
3564;DHT22;1796;52.388;13.096;2023-11-21T11:48:30;4.40;99.90
3564;DHT22;1796;52.388;13.096;2023-11-21T11:51:04;4.40;99.90
3564;DHT22;1796;52.388;13.096;2023-11-21T11:53:39;4.40;99.90
3564;DHT22;1796;52.388;13.096;2023-11-21T11:56:26;4.40;99.90
3564;DHT22;1796;52.388;13.096;2023-11-21T11:58:56;4.40;99.90
3564;DHT22;1796;52.388;13.096;2023-11-21T12:01:26;4.40;99.90
3564;DHT22;1796;52.388;13.096;2023-11-21T12:04:25;4.30;99.90
3564;DHT22;1796;52.388;13.096;2023-11-21T12:06:59;4.30;99.90
3564;DHT22;1796;52.388;13.096;2023-11-21T12:09:28;4.30;99.90
3564;DHT22;1796;52.388;13.096;2023-11-21T12:11:57;4.30;99.90
3564;DHT22;1796;52.388;13.096;2023-11-21T12:14:24;4.30;99.90
3564;DHT22;1796;52.388;13.096;2023-11-21T12:16:55;4.40;99.90
3564;DHT22;1796;52.388;13.096;2023-11-21T12:19:22;4.30;99.90
3564;DHT22;1796;52.388;13.096;2023-11-21T12:21:49;4.20;99.90
3564;DHT22;1796;52.388;13.096;2023-11-21T12:24:17;4.10;99.90
3564;DHT22;1796;52.388;13.096;2023-11-21T12:26:44;4.10;99.90
3564;DHT22;1796;52.388;13.096;2023-11-21T12:29:11;3.90;99.90
3564;DHT22;1796;52.388;13.096;2023-11-21T12:31:38;3.90;99.90
3564;DHT22;1796;52.388;13.096;2023-11-21T12:34:07;3.80;99.90
3564;DHT22;1796;52.388;13.096;2023-11-21T12:36:37;3.80;99.90
3564;DHT22;1796;52.388;13.096;2023-11-21T12:39:04;3.70;99.90
3564;DHT22;1796;52.388;13.096;2023-11-21T12:41:34;3.70;99.90
3564;DHT22;1796;52.388;13.096;2023-11-21T12:44:04;3.80;99.90
3564;DHT22;1796;52.388;13.096;2023-11-21T12:46:40;3.80;99.90
3564;DHT22;1796;52.388;13.096;2023-11-21T12:49:14;3.80;99.90
3564;DHT22;1796;52.388;13.096;2023-11-21T12:51:43;3.60;99.90
3564;DHT22;1796;52.388;13.096;2023-11-21T12:54:11;3.60;99.90
3564;DHT22;1796;52.388;13.096;2023-11-21T12:56:38;3.60;99.90
3564;DHT22;1796;52.388;13.096;2023-11-21T12:59:05;3.60;99.90
3564;DHT22;1796;52.388;13.096;2023-11-21T13:01:32;3.70;99.90
3564;DHT22;1796;52.388;13.096;2023-11-21T13:04:07;3.70;99.90
3564;DHT22;1796;52.388;13.096;2023-11-21T13:06:37;3.60;99.90
3564;DHT22;1796;52.388;13.096;2023-11-21T13:09:06;3.70;99.90
3564;DHT22;1796;52.388;13.096;2023-11-21T13:11:36;3.80;99.90
3564;DHT22;1796;52.388;13.096;2023-11-21T13:14:06;3.70;99.90
3564;DHT22;1796;52.388;13.096;2023-11-21T13:16:33;3.60;99.90
3564;DHT22;1796;52.388;13.096;2023-11-21T13:19:00;3.60;99.90
3564;DHT22;1796;52.388;13.096;2023-11-21T13:21:27;3.60;99.90
3564;DHT22;1796;52.388;13.096;2023-11-21T13:23:56;3.60;99.90
3564;DHT22;1796;52.388;13.096;2023-11-21T13:26:22;3.60;99.90
3564;DHT22;1796;52.388;13.096;2023-11-21T13:28:51;3.60;99.90
3564;DHT22;1796;52.388;13.096;2023-11-21T13:31:19;3.60;99.90
3564;DHT22;1796;52.388;13.096;2023-11-21T13:33:52;3.60;99.90
3564;DHT22;1796;52.388;13.096;2023-11-21T13:36:22;3.60;99.90
3564;DHT22;1796;52.388;13.096;2023-11-21T13:38:49;3.60;99.90
3564;DHT22;1796;52.388;13.096;2023-11-21T13:41:19;3.50;99.90
3564;DHT22;1796;52.388;13.096;2023-11-21T13:43:53;3.50;99.90
3564;DHT22;1796;52.388;13.096;2023-11-21T13:46:29;3.50;99.90
3564;DHT22;1796;52.388;13.096;2023-11-21T13:49:02;3.40;99.90
3564;DHT22;1796;52.388;13.096;2023-11-21T13:51:31;3.50;99.90
3564;DHT22;1796;52.388;13.096;2023-11-21T13:54:04;3.50;99.90
3564;DHT22;1796;52.388;13.096;2023-11-21T13:56:36;3.50;99.90
3564;DHT22;1796;52.388;13.096;2023-11-21T13:59:04;3.50;99.90
3564;DHT22;1796;52.388;13.096;2023-11-21T14:01:39;3.40;99.90
3564;DHT22;1796;52.388;13.096;2023-11-21T14:04:21;3.30;99.90
3564;DHT22;1796;52.388;13.096;2023-11-21T14:07:01;3.30;99.90
3564;DHT22;1796;52.388;13.096;2023-11-21T14:09:49;3.30;99.90
3564;DHT22;1796;52.388;13.096;2023-11-21T14:12:17;3.20;99.90
3564;DHT22;1796;52.388;13.096;2023-11-21T14:14:44;3.20;99.90
3564;DHT22;1796;52.388;13.096;2023-11-21T14:17:13;3.20;99.90
3564;DHT22;1796;52.388;13.096;2023-11-21T14:19:39;3.20;99.90
3564;DHT22;1796;52.388;13.096;2023-11-21T14:22:09;3.20;99.90
3564;DHT22;1796;52.388;13.096;2023-11-21T14:24:36;3.20;99.90
3564;DHT22;1796;52.388;13.096;2023-11-21T14:27:07;3.10;99.90
3564;DHT22;1796;52.388;13.096;2023-11-21T14:29:35;3.10;99.90
3564;DHT22;1796;52.388;13.096;2023-11-21T14:32:05;3.10;99.90
3564;DHT22;1796;52.388;13.096;2023-11-21T14:34:32;3.10;99.90
3564;DHT22;1796;52.388;13.096;2023-11-21T14:36:59;3.10;99.90
3564;DHT22;1796;52.388;13.096;2023-11-21T14:39:28;3.10;99.90
3564;DHT22;1796;52.388;13.096;2023-11-21T14:41:57;3.00;99.90
3564;DHT22;1796;52.388;13.096;2023-11-21T14:44:24;2.90;99.90
3564;DHT22;1796;52.388;13.096;2023-11-21T14:46:55;2.90;99.90
3564;DHT22;1796;52.388;13.096;2023-11-21T14:49:23;2.80;99.90
3564;DHT22;1796;52.388;13.096;2023-11-21T14:51:53;2.80;99.90
3564;DHT22;1796;52.388;13.096;2023-11-21T14:54:27;2.80;99.90
3564;DHT22;1796;52.388;13.096;2023-11-21T14:57:06;2.80;99.90
3564;DHT22;1796;52.388;13.096;2023-11-21T14:59:37;2.80;99.90
3564;DHT22;1796;52.388;13.096;2023-11-21T15:02:04;2.70;99.90
3564;DHT22;1796;52.388;13.096;2023-11-21T15:04:42;2.70;99.90
3564;DHT22;1796;52.388;13.096;2023-11-21T15:07:08;2.70;99.90
3564;DHT22;1796;52.388;13.096;2023-11-21T15:09:36;2.70;99.90
3564;DHT22;1796;52.388;13.096;2023-11-21T15:12:07;2.70;99.90
3564;DHT22;1796;52.388;13.096;2023-11-21T15:14:42;2.70;99.90
3564;DHT22;1796;52.388;13.096;2023-11-21T15:17:10;2.70;99.90
3564;DHT22;1796;52.388;13.096;2023-11-21T15:19:38;2.70;99.90
3564;DHT22;1796;52.388;13.096;2023-11-21T15:22:06;2.60;99.90
3564;DHT22;1796;52.388;13.096;2023-11-21T15:24:33;2.60;99.90
3564;DHT22;1796;52.388;13.096;2023-11-21T15:27:00;2.60;99.90
3564;DHT22;1796;52.388;13.096;2023-11-21T15:29:29;2.50;99.90
3564;DHT22;1796;52.388;13.096;2023-11-21T15:31:56;2.50;99.90
3564;DHT22;1796;52.388;13.096;2023-11-21T15:34:24;2.50;99.90
3564;DHT22;1796;52.388;13.096;2023-11-21T15:36:53;2.60;99.90
3564;DHT22;1796;52.388;13.096;2023-11-21T15:39:20;2.50;99.90
3564;DHT22;1796;52.388;13.096;2023-11-21T15:41:51;2.50;99.90
3564;DHT22;1796;52.388;13.096;2023-11-21T15:44:18;2.50;99.90
3564;DHT22;1796;52.388;13.096;2023-11-21T15:46:44;2.40;99.90
3564;DHT22;1796;52.388;13.096;2023-11-21T15:49:11;2.40;99.90
3564;DHT22;1796;52.388;13.096;2023-11-21T15:51:43;2.40;99.90
3564;DHT22;1796;52.388;13.096;2023-11-21T15:54:12;2.40;99.90
3564;DHT22;1796;52.388;13.096;2023-11-21T15:56:39;2.50;99.90
3564;DHT22;1796;52.388;13.096;2023-11-21T15:59:05;2.40;99.90
3564;DHT22;1796;52.388;13.096;2023-11-21T16:01:32;2.40;99.90
3564;DHT22;1796;52.388;13.096;2023-11-21T16:04:00;2.30;99.90
3564;DHT22;1796;52.388;13.096;2023-11-21T16:06:28;2.30;99.90
3564;DHT22;1796;52.388;13.096;2023-11-21T16:08:57;2.30;99.90
3564;DHT22;1796;52.388;13.096;2023-11-21T16:11:25;2.30;99.90